createdAt,value
2018-09-14T00:01:37.002Z,101893.02
2018-09-14T00:04:06.288Z,101887.41
2018-09-14T00:06:35.550Z,101887.03
2018-09-14T00:09:08.319Z,101891.84
2018-09-14T00:11:37.828Z,101886.40
2018-09-14T00:14:07.215Z,101883.99
2018-09-14T00:16:36.881Z,101883.27
2018-09-14T00:19:06.644Z,101883.09
2018-09-14T00:21:36.495Z,101889.36
2018-09-14T00:24:06.463Z,101889.09
2018-09-14T00:26:36.418Z,101886.73
2018-09-14T00:29:05.835Z,101880.81
2018-09-14T00:31:35.145Z,101880.74
2018-09-14T00:34:04.413Z,101888.43
2018-09-14T00:36:33.938Z,101882.75
2018-09-14T00:39:03.405Z,101883.80
2018-09-14T00:41:32.747Z,101878.71
2018-09-14T00:44:02.097Z,101882.38
2018-09-14T00:46:31.887Z,101879.84
2018-09-14T00:49:01.501Z,101880.29
2018-09-14T00:51:30.805Z,101875.00
2018-09-14T00:54:00.127Z,101878.95
2018-09-14T00:56:29.727Z,101876.83
2018-09-14T00:58:59.310Z,101878.64
2018-09-14T01:01:28.970Z,101879.25
2018-09-14T01:03:58.590Z,101882.57
2018-09-14T01:06:28.029Z,101872.45
2018-09-14T01:08:58.024Z,101883.69
2018-09-14T01:11:27.575Z,101881.52
2018-09-14T01:13:57.184Z,101875.33
2018-09-14T01:16:26.798Z,101876.44
2018-09-14T01:18:56.787Z,101878.36
2018-09-14T01:21:26.526Z,101878.20
2018-09-14T01:23:56.344Z,101876.59
2018-09-14T01:26:25.808Z,101871.67
2018-09-14T01:28:55.414Z,101869.74
2018-09-14T01:31:25.635Z,101877.77
2018-09-14T01:33:55.471Z,101874.13
2018-09-14T01:36:26.529Z,101870.05
2018-09-14T01:38:56.138Z,101875.34
2018-09-14T01:41:25.542Z,101871.81
2018-09-14T01:43:55.226Z,101863.47
2018-09-14T01:46:25.195Z,101863.82
2018-09-14T01:48:54.879Z,101860.45
2018-09-14T01:51:24.788Z,101853.95
2018-09-14T01:53:55.062Z,101855.40
2018-09-14T01:56:25.155Z,101856.92
2018-09-14T01:58:54.848Z,101856.81
2018-09-14T02:01:24.727Z,101849.31
2018-09-14T02:03:54.365Z,101846.86
2018-09-14T02:06:24.494Z,101854.91
2018-09-14T02:08:54.040Z,101842.63
2018-09-14T02:11:23.973Z,101848.06
2018-09-14T02:13:53.531Z,101852.38
2018-09-14T02:16:23.023Z,101846.39
2018-09-14T02:18:52.362Z,101841.52
2018-09-14T02:21:21.615Z,101843.98
2018-09-14T02:23:50.929Z,101843.71
2018-09-14T02:26:20.236Z,101845.53
2018-09-14T02:28:49.539Z,101844.06
2018-09-14T02:31:18.839Z,101842.52
2018-09-14T02:33:48.145Z,101833.06
2018-09-14T02:36:17.504Z,101835.31
2018-09-14T02:38:47.057Z,101839.39
2018-09-14T02:41:16.431Z,101838.74
2018-09-14T02:43:46.234Z,101841.76
2018-09-14T02:46:15.546Z,101841.00
2018-09-14T02:48:44.899Z,101842.92
2018-09-14T02:51:14.759Z,101848.59
2018-09-14T02:53:44.301Z,101847.46
2018-09-14T02:56:13.905Z,101843.12
2018-09-14T02:58:43.519Z,101844.22
2018-09-14T03:01:13.299Z,101840.95
2018-09-14T03:03:42.930Z,101839.75
2018-09-14T03:06:12.655Z,101838.38
2018-09-14T03:08:42.423Z,101835.14
2018-09-14T03:11:12.164Z,101832.79
2018-09-14T03:13:41.843Z,101840.75
2018-09-14T03:16:11.484Z,101833.43
2018-09-14T03:18:41.035Z,101839.14
2018-09-14T03:21:12.066Z,101834.42
2018-09-14T03:23:41.741Z,101834.28
2018-09-14T03:26:11.363Z,101836.49
2018-09-14T03:28:42.439Z,101835.06
2018-09-14T03:31:11.823Z,101837.06
2018-09-14T03:33:41.200Z,101832.63
2018-09-14T03:36:10.631Z,101832.98
2018-09-14T03:38:40.215Z,101838.91
2018-09-14T03:41:09.744Z,101835.00
2018-09-14T03:43:39.916Z,101833.05
2018-09-14T03:46:09.556Z,101829.48
2018-09-14T03:48:39.119Z,101830.52
2018-09-14T03:51:08.801Z,101826.14
2018-09-14T03:53:38.771Z,101824.33
2018-09-14T03:56:08.314Z,101825.03
2018-09-14T03:58:37.842Z,101821.49
2018-09-14T04:01:07.600Z,101830.75
2018-09-14T04:03:37.229Z,101833.22
2018-09-14T04:06:06.904Z,101832.58
2018-09-14T04:08:36.303Z,101828.73
2018-09-14T04:11:05.555Z,101822.48
2018-09-14T04:13:35.244Z,101831.56
2018-09-14T04:16:05.035Z,101826.03
2018-09-14T04:18:34.375Z,101830.09
2018-09-14T04:21:03.752Z,101829.47
2018-09-14T04:23:33.273Z,101824.42
2018-09-14T04:26:03.490Z,101829.20
2018-09-14T04:28:33.160Z,101828.74
2018-09-14T04:31:02.434Z,101824.95
2018-09-14T04:33:31.856Z,101829.55
2018-09-14T04:36:01.157Z,101830.27
2018-09-14T04:38:30.491Z,101832.52
2018-09-14T04:40:59.721Z,101828.02
2018-09-14T04:43:29.259Z,101829.33
2018-09-14T04:45:58.719Z,101834.72
2018-09-14T04:48:28.046Z,101837.00
2018-09-14T04:50:57.701Z,101835.95
2018-09-14T04:53:26.973Z,101834.55
2018-09-14T04:55:56.391Z,101837.45
2018-09-14T04:58:25.802Z,101839.51
2018-09-14T05:00:55.091Z,101837.39
2018-09-14T05:03:24.456Z,101837.81
2018-09-14T05:05:53.940Z,101834.92
2018-09-14T05:08:23.285Z,101841.72
2018-09-14T05:10:52.587Z,101836.10
2018-09-14T05:13:21.954Z,101836.06
2018-09-14T05:15:51.311Z,101838.58
2018-09-14T05:18:20.685Z,101835.22
2018-09-14T05:20:49.988Z,101838.36
2018-09-14T05:23:19.883Z,101840.80
2018-09-14T05:25:49.216Z,101847.30
2018-09-14T05:28:18.518Z,101845.05
2018-09-14T05:30:47.811Z,101846.50
2018-09-14T05:33:17.157Z,101853.16
2018-09-14T05:35:46.607Z,101855.33
2018-09-14T05:38:15.998Z,101855.74
2018-09-14T05:40:45.348Z,101846.67
2018-09-14T05:43:15.028Z,101854.91
2018-09-14T05:45:44.360Z,101857.47
2018-09-14T05:48:13.686Z,101855.73
2018-09-14T05:50:43.067Z,101849.38
2018-09-14T05:53:12.596Z,101850.77
2018-09-14T05:55:42.617Z,101846.10
2018-09-14T05:58:12.561Z,101855.38
2018-09-14T06:00:41.891Z,101847.98
2018-09-14T06:03:11.169Z,101851.99
2018-09-14T06:05:40.475Z,101849.47
2018-09-14T06:08:09.787Z,101854.42
2018-09-14T06:10:39.184Z,101857.22
2018-09-14T06:13:08.471Z,101859.61
2018-09-14T06:15:37.757Z,101854.67
2018-09-14T06:18:07.150Z,101867.05
2018-09-14T06:20:36.768Z,101865.77
2018-09-14T06:23:06.235Z,101864.37
2018-09-14T06:25:35.645Z,101867.80
2018-09-14T06:28:04.950Z,101859.61
2018-09-14T06:30:34.245Z,101870.02
2018-09-14T06:33:03.538Z,101872.58
2018-09-14T06:35:32.995Z,101872.29
2018-09-14T06:38:02.279Z,101867.19
2018-09-14T06:40:31.549Z,101864.55
2018-09-14T06:43:01.128Z,101863.36
2018-09-14T06:45:30.464Z,101856.02
2018-09-14T06:47:59.735Z,101848.64
2018-09-14T06:50:29.089Z,101846.20
2018-09-14T06:52:58.364Z,101859.38
2018-09-14T06:55:27.702Z,101865.23
2018-09-14T06:57:57.507Z,101860.84
2018-09-14T07:00:27.010Z,101861.91
2018-09-14T07:02:56.211Z,101868.66
2018-09-14T07:05:25.754Z,101868.98
2018-09-14T07:07:55.062Z,101868.28
2018-09-14T07:10:24.342Z,101872.73
2018-09-14T07:12:53.862Z,101872.25
2018-09-14T07:15:23.698Z,101871.07
2018-09-14T07:17:53.156Z,101877.23
2018-09-14T07:20:22.458Z,101870.09
2018-09-14T07:22:51.761Z,101872.84
2018-09-14T07:25:21.262Z,101871.70
2018-09-14T07:27:51.085Z,101875.50
2018-09-14T07:30:20.397Z,101870.45
2018-09-14T07:32:49.707Z,101877.94
2018-09-14T07:35:19.037Z,101877.67
2018-09-14T07:37:48.310Z,101879.81
2018-09-14T07:40:17.774Z,101881.94
2018-09-14T07:42:47.143Z,101885.94
2018-09-14T07:45:16.473Z,101888.08
2018-09-14T07:47:45.854Z,101881.86
2018-09-14T07:50:15.583Z,101886.36
2018-09-14T07:52:44.935Z,101884.41
2018-09-14T07:55:14.544Z,101881.48
2018-09-14T07:57:43.840Z,101883.06
2018-09-14T08:00:13.247Z,101885.38
2018-09-14T08:02:42.539Z,101881.13
2018-09-14T08:05:11.849Z,101888.98
2018-09-14T08:07:41.183Z,101883.03
2018-09-14T08:10:10.628Z,101884.51
2018-09-14T08:12:40.216Z,101884.55
2018-09-14T08:15:09.664Z,101884.17
2018-09-14T08:17:39.097Z,101889.16
2018-09-14T08:20:08.491Z,101882.36
2018-09-14T08:22:38.002Z,101885.38
2018-09-14T08:25:07.365Z,101889.03
2018-09-14T08:27:36.827Z,101878.66
2018-09-14T08:30:06.468Z,101882.57
2018-09-14T08:32:35.778Z,101885.98
2018-09-14T08:35:05.495Z,101884.31
2018-09-14T08:37:34.815Z,101891.22
2018-09-14T08:40:04.132Z,101883.08
2018-09-14T08:42:33.511Z,101884.84
2018-09-14T08:45:02.764Z,101888.72
2018-09-14T08:47:32.077Z,101886.91
2018-09-14T08:50:01.398Z,101888.29
2018-09-14T08:52:30.665Z,101882.91
2018-09-14T08:54:59.972Z,101882.33
2018-09-14T08:57:29.550Z,101882.55
2018-09-14T08:59:59.413Z,101877.34
2018-09-14T09:02:28.859Z,101879.50
2018-09-14T09:04:58.227Z,101878.61
2018-09-14T09:07:27.578Z,101880.25
2018-09-14T09:09:57.050Z,101878.38
2018-09-14T09:12:26.409Z,101876.02
2018-09-14T09:14:56.174Z,101875.58
2018-09-14T09:17:25.497Z,101872.96
2018-09-14T09:19:55.568Z,101867.28
2018-09-14T09:22:24.803Z,101867.97
2018-09-14T09:24:54.095Z,101860.63
2018-09-14T09:27:23.484Z,101860.41
2018-09-14T09:29:53.131Z,101863.95
2018-09-14T09:32:22.526Z,101862.49
2018-09-14T09:34:51.870Z,101860.41
2018-09-14T09:37:21.160Z,101860.30
2018-09-14T09:39:50.487Z,101860.75
2018-09-14T09:42:20.233Z,101858.59
2018-09-14T09:44:49.557Z,101863.87
2018-09-14T09:47:18.853Z,101857.42
2018-09-14T09:49:48.139Z,101860.66
2018-09-14T09:52:17.537Z,101860.36
2018-09-14T09:54:46.897Z,101857.44
2018-09-14T09:57:16.225Z,101856.67
2018-09-14T09:59:45.830Z,101854.64
2018-09-14T10:02:20.756Z,101858.44
2018-09-14T10:04:55.405Z,101860.09
2018-09-14T10:07:26.579Z,101862.88
2018-09-14T10:09:56.695Z,101865.11
2018-09-14T10:12:25.989Z,101860.30
2018-09-14T10:14:55.413Z,101867.78
2018-09-14T10:17:24.679Z,101862.66
2018-09-14T10:19:54.071Z,101868.63
2018-09-14T10:22:23.827Z,101861.23
2018-09-14T10:24:53.128Z,101865.39
2018-09-14T10:27:22.432Z,101865.28
2018-09-14T10:29:51.797Z,101865.77
2018-09-14T10:32:21.275Z,101859.70
2018-09-14T10:34:50.603Z,101853.74
2018-09-14T10:37:19.978Z,101849.41
2018-09-14T10:39:49.491Z,101836.91
2018-09-14T10:42:18.803Z,101841.11
2018-09-14T10:44:48.341Z,101850.25
2018-09-14T10:47:17.664Z,101847.22
2018-09-14T10:49:47.050Z,101841.41
2018-09-14T10:52:16.430Z,101843.50
2018-09-14T10:54:45.959Z,101836.38
2018-09-14T10:57:15.258Z,101832.50
2018-09-14T10:59:44.695Z,101824.48
2018-09-14T11:02:14.029Z,101819.69
2018-09-14T11:04:43.362Z,101816.73
2018-09-14T11:07:13.104Z,101815.02
2018-09-14T11:09:42.396Z,101815.20
2018-09-14T11:12:11.718Z,101814.00
2018-09-14T11:14:41.079Z,101813.82
2018-09-14T11:17:10.347Z,101808.48
2018-09-14T11:19:39.792Z,101805.86
2018-09-14T11:22:09.275Z,101798.56
2018-09-14T11:24:38.694Z,101802.95
2018-09-14T11:27:07.986Z,101808.45
2018-09-14T11:29:37.727Z,101801.28
2018-09-14T11:32:07.085Z,101803.11
2018-09-14T11:34:36.471Z,101805.38
2018-09-14T11:37:06.341Z,101801.02
2018-09-14T11:39:35.585Z,101791.25
2018-09-14T11:42:05.024Z,101791.02
2018-09-14T11:44:34.413Z,101784.84
2018-09-14T11:47:03.738Z,101783.61
2018-09-14T11:49:33.202Z,101785.23
2018-09-14T11:52:02.923Z,101787.86
2018-09-14T11:54:32.311Z,101780.82
2018-09-14T11:57:01.627Z,101779.49
2018-09-14T11:59:31.634Z,101779.16
2018-09-14T12:02:00.930Z,101777.48
2018-09-14T12:04:30.351Z,101777.71
2018-09-14T12:06:59.712Z,101776.98
2018-09-14T12:09:29.051Z,101772.09
2018-09-14T12:11:58.302Z,101757.12
2018-09-14T12:14:28.118Z,101757.53
2018-09-14T12:16:57.378Z,101758.69
2018-09-14T12:19:26.903Z,101755.12
2018-09-14T12:21:56.288Z,101754.38
2018-09-14T12:24:25.637Z,101754.77
2018-09-14T12:26:54.980Z,101756.23
2018-09-14T12:29:24.379Z,101747.70
2018-09-14T12:31:53.648Z,101739.92
2018-09-14T12:34:23.039Z,101735.70
2018-09-14T12:36:52.646Z,101739.17
2018-09-14T12:39:22.002Z,101733.44
2018-09-14T12:41:51.900Z,101726.31
2018-09-14T12:44:21.282Z,101721.34
2018-09-14T12:46:50.676Z,101717.22
2018-09-14T12:49:19.982Z,101719.37
2018-09-14T12:51:49.363Z,101712.14
2018-09-14T12:54:18.759Z,101705.03
2018-09-14T12:56:48.060Z,101702.92
2018-09-14T12:59:17.967Z,101705.44
2018-09-14T13:01:47.348Z,101713.44
2018-09-14T13:04:17.213Z,101695.68
2018-09-14T13:06:46.612Z,101696.73
2018-09-14T13:09:15.915Z,101700.25
2018-09-14T13:11:45.226Z,101703.09
2018-09-14T13:14:17.815Z,101693.33
2018-09-14T13:16:47.262Z,101692.81
2018-09-14T13:19:16.607Z,101694.63
2018-09-14T13:21:46.380Z,101687.88
2018-09-14T13:24:15.793Z,101678.64
2018-09-14T13:26:45.111Z,101675.17
2018-09-14T13:29:14.400Z,101671.95
2018-09-14T13:31:43.931Z,101668.52
2018-09-14T13:34:13.399Z,101675.34
2018-09-14T13:36:42.873Z,101668.56
2018-09-14T13:39:12.693Z,101667.30
2018-09-14T13:41:42.328Z,101670.12
2018-09-14T13:44:11.953Z,101666.15
2018-09-14T13:46:41.579Z,101669.52
2018-09-14T13:49:10.913Z,101662.44
2018-09-14T13:51:40.268Z,101661.01
2018-09-14T13:54:09.620Z,101652.36
2018-09-14T13:56:39.025Z,101662.27
2018-09-14T13:59:08.535Z,101658.08
2018-09-14T14:01:37.903Z,101643.13
2018-09-14T14:04:07.203Z,101642.04
2018-09-14T14:06:36.898Z,101649.92
2018-09-14T14:09:10.128Z,101649.00
2018-09-14T14:11:39.650Z,101652.05
2018-09-14T14:14:09.914Z,101644.78
2018-09-14T14:16:39.277Z,101639.61
2018-09-14T14:19:09.214Z,101636.21
2018-09-14T14:21:38.655Z,101639.08
2018-09-14T14:24:08.210Z,101640.89
2018-09-14T14:26:38.054Z,101643.25
2018-09-14T14:29:07.935Z,101637.37
2018-09-14T14:31:37.286Z,101636.42
2018-09-14T14:34:06.728Z,101634.84
2018-09-14T14:36:36.170Z,101622.41
2018-09-14T14:39:07.979Z,101634.77
2018-09-14T14:41:37.374Z,101630.59
2018-09-14T14:44:06.852Z,101626.55
2018-09-14T14:46:36.243Z,101625.16
2018-09-14T14:49:05.603Z,101629.47
2018-09-14T14:51:34.931Z,101621.95
2018-09-14T14:54:04.342Z,101624.58
2018-09-14T14:56:33.801Z,101615.27
2018-09-14T14:59:03.151Z,101613.95
2018-09-14T15:01:32.820Z,101617.65
2018-09-14T15:04:02.113Z,101601.23
2018-09-14T15:06:31.893Z,101609.15
2018-09-14T15:09:01.573Z,101604.95
2018-09-14T15:11:31.000Z,101605.72
2018-09-14T15:14:00.325Z,101599.33
2018-09-14T15:16:29.665Z,101609.88
2018-09-14T15:18:59.019Z,101602.67
2018-09-14T15:21:28.468Z,101604.97
2018-09-14T15:23:58.023Z,101596.80
2018-09-14T15:26:27.336Z,101609.87
2018-09-14T15:28:56.683Z,101606.52
2018-09-14T15:31:26.459Z,101595.98
2018-09-14T15:33:55.817Z,101603.05
2018-09-14T15:36:25.158Z,101600.63
2018-09-14T15:38:54.521Z,101596.45
2018-09-14T15:41:24.025Z,101599.19
2018-09-14T15:43:53.372Z,101596.17
2018-09-14T15:46:22.827Z,101595.75
2018-09-14T15:48:52.180Z,101600.95
2018-09-14T15:51:21.658Z,101594.11
2018-09-14T15:53:52.320Z,101599.70
2018-09-14T15:56:21.603Z,101593.80
2018-09-14T15:58:51.242Z,101594.30
2018-09-14T16:01:20.681Z,101587.34
2018-09-14T16:03:50.320Z,101589.63
2018-09-14T16:06:19.591Z,101582.66
2018-09-14T16:08:50.210Z,101588.51
2018-09-14T16:11:19.608Z,101582.05
2018-09-14T16:13:49.159Z,101586.81
2018-09-14T16:16:18.975Z,101587.97
2018-09-14T16:18:48.292Z,101582.50
2018-09-14T16:21:17.605Z,101580.89
2018-09-14T16:23:47.015Z,101588.39
2018-09-14T16:26:16.386Z,101578.59
2018-09-14T16:28:45.704Z,101585.94
2018-09-14T16:31:15.660Z,101586.14
2018-09-14T16:33:45.126Z,101580.20
2018-09-14T16:36:14.747Z,101576.61
2018-09-14T16:38:44.401Z,101581.64
2018-09-14T16:41:13.712Z,101579.89
2018-09-14T16:43:43.100Z,101577.45
2018-09-14T16:46:12.415Z,101582.00
2018-09-14T16:48:41.782Z,101582.44
2018-09-14T16:51:11.079Z,101573.31
2018-09-14T16:53:40.644Z,101577.19
2018-09-14T16:56:10.000Z,101566.72
2018-09-14T16:58:39.385Z,101572.71
2018-09-14T17:01:09.194Z,101574.04
2018-09-14T17:03:38.636Z,101571.51
2018-09-14T17:06:08.070Z,101572.94
2018-09-14T17:08:37.534Z,101568.25
2018-09-14T17:11:07.038Z,101579.27
2018-09-14T17:13:36.458Z,101576.98
2018-09-14T17:16:05.839Z,101572.70
2018-09-14T17:18:35.515Z,101573.00
2018-09-14T17:21:05.023Z,101577.24
2018-09-14T17:23:34.638Z,101577.36
2018-09-14T17:26:04.484Z,101576.09
2018-09-14T17:28:33.861Z,101580.89
2018-09-14T17:31:03.420Z,101574.72
2018-09-14T17:33:32.762Z,101577.93
2018-09-14T17:36:02.173Z,101579.64
2018-09-14T17:38:31.611Z,101582.08
2018-09-14T17:41:01.069Z,101580.16
2018-09-14T17:43:30.597Z,101579.44
2018-09-14T17:46:00.600Z,101580.82
2018-09-14T17:48:30.012Z,101581.14
2018-09-14T17:50:59.359Z,101584.28
2018-09-14T17:53:28.900Z,101580.88
2018-09-14T17:55:58.205Z,101585.41
2018-09-14T17:58:27.669Z,101590.37
2018-09-14T18:00:57.394Z,101585.08
2018-09-14T18:03:26.892Z,101599.21
2018-09-14T18:05:56.143Z,101597.05
2018-09-14T18:08:25.950Z,101599.37
2018-09-14T18:10:55.305Z,101596.91
2018-09-14T18:13:24.855Z,101603.35
2018-09-14T18:15:54.405Z,101606.96
2018-09-14T18:18:24.008Z,101600.17
2018-09-14T18:20:53.487Z,101598.23
2018-09-14T18:23:22.959Z,101596.05
2018-09-14T18:25:52.296Z,101600.70
2018-09-14T18:28:21.885Z,101599.61
2018-09-14T18:30:51.669Z,101599.03
2018-09-14T18:33:21.175Z,101597.97
2018-09-14T18:35:50.696Z,101599.19
2018-09-14T18:38:20.296Z,101598.54
2018-09-14T18:40:50.011Z,101599.41
2018-09-14T18:43:19.647Z,101604.25
2018-09-14T18:45:49.458Z,101607.14
2018-09-14T18:48:18.898Z,101611.05
2018-09-14T18:50:48.515Z,101604.83
2018-09-14T18:53:18.682Z,101611.75
2018-09-14T18:55:48.323Z,101612.61
2018-09-14T18:58:18.074Z,101610.80
2018-09-14T19:00:47.607Z,101610.00
2018-09-14T19:03:17.244Z,101610.91
2018-09-14T19:05:46.670Z,101609.66
2018-09-14T19:08:16.240Z,101604.50
2018-09-14T19:10:46.316Z,101603.00
2018-09-14T19:13:17.250Z,101604.31
2018-09-14T19:15:47.023Z,101598.02
2018-09-14T19:18:16.679Z,101603.77
2018-09-14T19:20:46.377Z,101602.84
2018-09-14T19:23:15.871Z,101602.48
2018-09-14T19:25:45.235Z,101597.06
2018-09-14T19:28:14.713Z,101603.45
2018-09-14T19:30:44.361Z,101598.16
2018-09-14T19:33:13.748Z,101598.20
2018-09-14T19:35:43.124Z,101607.84
2018-09-14T19:38:12.966Z,101605.95
2018-09-14T19:40:42.722Z,101610.44
2018-09-14T19:43:12.186Z,101610.27
2018-09-14T19:45:41.987Z,101612.92
2018-09-14T19:48:11.881Z,101616.23
2018-09-14T19:50:42.023Z,101618.23
2018-09-14T19:53:12.138Z,101610.91
2018-09-14T19:55:41.987Z,101614.88
2018-09-14T19:58:12.265Z,101618.00
2018-09-14T20:00:42.331Z,101620.36
2018-09-14T20:03:12.008Z,101612.27
2018-09-14T20:05:42.067Z,101614.12
2018-09-14T20:08:11.905Z,101618.47
2018-09-14T20:10:41.752Z,101610.95
2018-09-14T20:13:11.925Z,101612.75
2018-09-14T20:15:41.904Z,101610.86
2018-09-14T20:18:11.563Z,101602.27
2018-09-14T20:20:41.453Z,101609.87
2018-09-14T20:23:11.320Z,101599.24
2018-09-14T20:25:41.115Z,101594.23
2018-09-14T20:28:10.649Z,101597.11
2018-09-14T20:30:40.533Z,101599.28
2018-09-14T20:33:10.117Z,101596.63
2018-09-14T20:35:39.816Z,101596.11
2018-09-14T20:38:09.603Z,101591.44
2018-09-14T20:40:39.328Z,101588.00
2018-09-14T20:43:08.808Z,101587.19
2018-09-14T20:45:38.766Z,101582.52
2018-09-14T20:48:08.376Z,101582.77
2018-09-14T20:50:37.966Z,101582.02
2018-09-14T20:53:10.510Z,101582.09
2018-09-14T20:55:40.316Z,101580.06
2018-09-14T20:58:10.302Z,101581.43
2018-09-14T21:00:39.962Z,101580.36
2018-09-14T21:03:09.682Z,101581.59
2018-09-14T21:05:39.191Z,101577.70
2018-09-14T21:08:09.238Z,101574.00
2018-09-14T21:10:38.553Z,101574.81
2018-09-14T21:13:08.192Z,101578.43
2018-09-14T21:15:37.692Z,101574.48
2018-09-14T21:18:07.477Z,101574.54
2018-09-14T21:20:37.445Z,101566.16
2018-09-14T21:23:07.398Z,101566.98
2018-09-14T21:25:37.353Z,101566.31
2018-09-14T21:28:06.966Z,101570.59
2018-09-14T21:30:36.725Z,101562.09
2018-09-14T21:33:06.255Z,101568.89
2018-09-14T21:35:36.021Z,101571.17
2018-09-14T21:38:05.454Z,101568.95
2018-09-14T21:40:35.145Z,101575.78
2018-09-14T21:43:04.875Z,101575.20
2018-09-14T21:45:34.966Z,101565.64
2018-09-14T21:48:04.548Z,101563.69
2018-09-14T21:50:34.002Z,101564.18
2018-09-14T21:53:03.349Z,101570.95
2018-09-14T21:55:32.918Z,101569.28
2018-09-14T21:58:02.376Z,101571.78
2018-09-14T22:00:37.315Z,101571.66
2018-09-14T22:03:07.126Z,101576.24
2018-09-14T22:05:36.950Z,101564.56
2018-09-14T22:08:07.048Z,101576.64
2018-09-14T22:10:36.824Z,101569.37
2018-09-14T22:13:06.662Z,101576.01
2018-09-14T22:15:36.274Z,101575.41
2018-09-14T22:18:05.946Z,101571.61
2018-09-14T22:20:35.593Z,101581.33
2018-09-14T22:23:06.774Z,101583.94
2018-09-14T22:25:36.167Z,101576.66
2018-09-14T22:28:05.676Z,101579.41
2018-09-14T22:30:38.252Z,101581.45
2018-09-14T22:33:08.060Z,101581.12
2018-09-14T22:35:37.397Z,101572.94
2018-09-14T22:38:07.190Z,101574.39
2018-09-14T22:40:36.751Z,101576.69
2018-09-14T22:43:06.385Z,101570.01
2018-09-14T22:45:35.839Z,101569.13
2018-09-14T22:48:05.277Z,101568.26
2018-09-14T22:50:35.634Z,101568.92
2018-09-14T22:53:05.019Z,101581.63
2018-09-14T22:55:34.323Z,101573.38
2018-09-14T22:58:03.836Z,101577.09
2018-09-14T23:00:38.895Z,101582.52
2018-09-14T23:03:08.230Z,101569.22
2018-09-14T23:05:37.681Z,101572.47
2018-09-14T23:08:07.506Z,101577.04
2018-09-14T23:10:37.254Z,101576.98
2018-09-14T23:13:06.963Z,101572.25
2018-09-14T23:15:36.668Z,101581.47
2018-09-14T23:18:06.826Z,101583.09
2018-09-14T23:20:36.467Z,101583.17
2018-09-14T23:23:06.631Z,101584.84
2018-09-14T23:25:36.164Z,101591.51
2018-09-14T23:28:05.950Z,101583.98
2018-09-14T23:30:35.566Z,101583.11
2018-09-14T23:33:05.369Z,101587.62
2018-09-14T23:35:35.225Z,101582.81
2018-09-14T23:38:05.127Z,101581.20
2018-09-14T23:40:34.525Z,101582.81
2018-09-14T23:43:03.956Z,101585.35
2018-09-14T23:45:33.680Z,101586.72
2018-09-14T23:48:03.422Z,101591.55
2018-09-14T23:50:32.795Z,101585.98
2018-09-14T23:53:02.522Z,101582.39
2018-09-14T23:55:32.142Z,101584.70
2018-09-14T23:58:01.978Z,101582.78
